sensor_id;sensor_type;location;lat;lon;timestamp;P1;durP1;ratioP1;P2;durP2;ratioP2
69005;SDS011;56061;51.748;19.620;2024-03-02T00:01:48;30.70;;;15.70;;
69005;SDS011;56061;51.748;19.620;2024-03-02T00:04:15;33.60;;;15.50;;
69005;SDS011;56061;51.748;19.620;2024-03-02T00:06:41;31.70;;;16.00;;
69005;SDS011;56061;51.748;19.620;2024-03-02T00:09:10;33.20;;;16.80;;
69005;SDS011;56061;51.748;19.620;2024-03-02T00:11:38;34.10;;;16.00;;
69005;SDS011;56061;51.748;19.620;2024-03-02T00:14:05;33.90;;;15.80;;
69005;SDS011;56061;51.748;19.620;2024-03-02T00:16:32;35.50;;;16.70;;
69005;SDS011;56061;51.748;19.620;2024-03-02T00:19:05;33.90;;;15.90;;
69005;SDS011;56061;51.748;19.620;2024-03-02T00:21:33;33.00;;;15.50;;
69005;SDS011;56061;51.748;19.620;2024-03-02T00:24:01;37.40;;;15.70;;
69005;SDS011;56061;51.748;19.620;2024-03-02T00:26:39;32.10;;;15.60;;
69005;SDS011;56061;51.748;19.620;2024-03-02T00:29:05;33.10;;;16.50;;
69005;SDS011;56061;51.748;19.620;2024-03-02T00:31:32;27.80;;;13.20;;
69005;SDS011;56061;51.748;19.620;2024-03-02T00:34:02;32.10;;;15.60;;
69005;SDS011;56061;51.748;19.620;2024-03-02T00:36:31;28.60;;;13.70;;
69005;SDS011;56061;51.748;19.620;2024-03-02T00:38:58;32.80;;;15.50;;
69005;SDS011;56061;51.748;19.620;2024-03-02T00:41:27;36.50;;;15.60;;
69005;SDS011;56061;51.748;19.620;2024-03-02T00:44:04;31.10;;;16.20;;
69005;SDS011;56061;51.748;19.620;2024-03-02T00:46:37;31.30;;;16.00;;
69005;SDS011;56061;51.748;19.620;2024-03-02T00:49:25;36.00;;;16.60;;
69005;SDS011;56061;51.748;19.620;2024-03-02T00:51:54;34.10;;;15.80;;
69005;SDS011;56061;51.748;19.620;2024-03-02T00:54:27;29.50;;;14.30;;
69005;SDS011;56061;51.748;19.620;2024-03-02T00:56:55;29.60;;;15.40;;
69005;SDS011;56061;51.748;19.620;2024-03-02T00:59:23;30.00;;;15.80;;
69005;SDS011;56061;51.748;19.620;2024-03-02T01:01:50;31.30;;;15.20;;
69005;SDS011;56061;51.748;19.620;2024-03-02T01:04:17;30.50;;;15.40;;
69005;SDS011;56061;51.748;19.620;2024-03-02T01:06:44;28.50;;;15.40;;
69005;SDS011;56061;51.748;19.620;2024-03-02T01:09:11;30.80;;;14.90;;
69005;SDS011;56061;51.748;19.620;2024-03-02T01:11:41;29.00;;;14.70;;
69005;SDS011;56061;51.748;19.620;2024-03-02T01:14:07;31.20;;;14.90;;
69005;SDS011;56061;51.748;19.620;2024-03-02T01:16:34;30.00;;;15.20;;
69005;SDS011;56061;51.748;19.620;2024-03-02T01:19:00;32.30;;;15.90;;
69005;SDS011;56061;51.748;19.620;2024-03-02T01:21:27;28.20;;;14.70;;
69005;SDS011;56061;51.748;19.620;2024-03-02T01:23:54;31.30;;;15.00;;
69005;SDS011;56061;51.748;19.620;2024-03-02T01:26:20;29.70;;;14.90;;
69005;SDS011;56061;51.748;19.620;2024-03-02T01:28:47;28.10;;;15.00;;
69005;SDS011;56061;51.748;19.620;2024-03-02T01:31:13;29.80;;;16.10;;
69005;SDS011;56061;51.748;19.620;2024-03-02T01:33:40;30.60;;;15.10;;
69005;SDS011;56061;51.748;19.620;2024-03-02T01:36:06;29.60;;;14.90;;
69005;SDS011;56061;51.748;19.620;2024-03-02T01:38:34;31.30;;;16.20;;
69005;SDS011;56061;51.748;19.620;2024-03-02T01:41:01;30.90;;;15.70;;
69005;SDS011;56061;51.748;19.620;2024-03-02T01:43:28;29.30;;;15.00;;
69005;SDS011;56061;51.748;19.620;2024-03-02T01:45:55;27.50;;;14.80;;
69005;SDS011;56061;51.748;19.620;2024-03-02T01:48:23;30.80;;;15.30;;
69005;SDS011;56061;51.748;19.620;2024-03-02T01:50:50;28.90;;;14.60;;
69005;SDS011;56061;51.748;19.620;2024-03-02T01:53:17;28.70;;;14.10;;
69005;SDS011;56061;51.748;19.620;2024-03-02T01:55:44;27.70;;;14.30;;
69005;SDS011;56061;51.748;19.620;2024-03-02T01:58:10;31.40;;;15.70;;
69005;SDS011;56061;51.748;19.620;2024-03-02T02:00:37;27.80;;;14.30;;
69005;SDS011;56061;51.748;19.620;2024-03-02T02:03:04;27.70;;;15.20;;
69005;SDS011;56061;51.748;19.620;2024-03-02T02:05:30;29.60;;;15.00;;
69005;SDS011;56061;51.748;19.620;2024-03-02T02:07:58;28.50;;;15.30;;
69005;SDS011;56061;51.748;19.620;2024-03-02T02:10:24;31.30;;;15.70;;
69005;SDS011;56061;51.748;19.620;2024-03-02T02:12:51;27.90;;;14.40;;
69005;SDS011;56061;51.748;19.620;2024-03-02T02:15:22;30.60;;;15.70;;
69005;SDS011;56061;51.748;19.620;2024-03-02T02:17:50;31.10;;;15.40;;
69005;SDS011;56061;51.748;19.620;2024-03-02T02:20:16;29.70;;;15.20;;
69005;SDS011;56061;51.748;19.620;2024-03-02T02:22:56;27.80;;;15.00;;
69005;SDS011;56061;51.748;19.620;2024-03-02T02:25:27;31.00;;;14.60;;
69005;SDS011;56061;51.748;19.620;2024-03-02T02:27:56;28.10;;;14.80;;
69005;SDS011;56061;51.748;19.620;2024-03-02T02:30:25;30.80;;;15.70;;
69005;SDS011;56061;51.748;19.620;2024-03-02T02:32:54;31.30;;;15.30;;
69005;SDS011;56061;51.748;19.620;2024-03-02T02:35:21;29.10;;;15.80;;
69005;SDS011;56061;51.748;19.620;2024-03-02T02:37:49;29.00;;;14.70;;
69005;SDS011;56061;51.748;19.620;2024-03-02T02:40:17;30.40;;;14.60;;
69005;SDS011;56061;51.748;19.620;2024-03-02T02:42:45;29.90;;;15.10;;
69005;SDS011;56061;51.748;19.620;2024-03-02T02:45:12;30.00;;;15.40;;
69005;SDS011;56061;51.748;19.620;2024-03-02T02:47:41;28.40;;;14.10;;
69005;SDS011;56061;51.748;19.620;2024-03-02T02:50:08;30.30;;;15.60;;
69005;SDS011;56061;51.748;19.620;2024-03-02T02:52:38;27.40;;;14.50;;
69005;SDS011;56061;51.748;19.620;2024-03-02T02:55:11;27.20;;;15.10;;
69005;SDS011;56061;51.748;19.620;2024-03-02T02:57:40;27.10;;;13.90;;
69005;SDS011;56061;51.748;19.620;2024-03-02T03:00:11;28.40;;;13.70;;
69005;SDS011;56061;51.748;19.620;2024-03-02T03:02:48;27.30;;;14.30;;
69005;SDS011;56061;51.748;19.620;2024-03-02T03:05:17;27.80;;;14.10;;
69005;SDS011;56061;51.748;19.620;2024-03-02T03:07:45;27.00;;;13.90;;
69005;SDS011;56061;51.748;19.620;2024-03-02T03:10:12;28.20;;;13.70;;
69005;SDS011;56061;51.748;19.620;2024-03-02T03:12:40;26.40;;;13.90;;
69005;SDS011;56061;51.748;19.620;2024-03-02T03:15:09;26.60;;;14.50;;
69005;SDS011;56061;51.748;19.620;2024-03-02T03:17:36;26.90;;;14.10;;
69005;SDS011;56061;51.748;19.620;2024-03-02T03:20:04;24.90;;;14.10;;
69005;SDS011;56061;51.748;19.620;2024-03-02T03:22:32;25.20;;;14.20;;
69005;SDS011;56061;51.748;19.620;2024-03-02T03:24:59;29.80;;;15.30;;
69005;SDS011;56061;51.748;19.620;2024-03-02T03:27:26;27.70;;;14.30;;
69005;SDS011;56061;51.748;19.620;2024-03-02T03:29:53;27.90;;;14.10;;
69005;SDS011;56061;51.748;19.620;2024-03-02T03:32:20;25.90;;;13.20;;
69005;SDS011;56061;51.748;19.620;2024-03-02T03:34:47;30.90;;;13.80;;
69005;SDS011;56061;51.748;19.620;2024-03-02T03:37:15;30.40;;;14.90;;
69005;SDS011;56061;51.748;19.620;2024-03-02T03:39:41;27.00;;;13.90;;
69005;SDS011;56061;51.748;19.620;2024-03-02T03:42:08;28.80;;;13.80;;
69005;SDS011;56061;51.748;19.620;2024-03-02T03:44:34;30.20;;;14.00;;
69005;SDS011;56061;51.748;19.620;2024-03-02T03:47:01;27.90;;;14.00;;
69005;SDS011;56061;51.748;19.620;2024-03-02T03:49:29;27.80;;;14.30;;
69005;SDS011;56061;51.748;19.620;2024-03-02T03:51:55;28.40;;;14.20;;
69005;SDS011;56061;51.748;19.620;2024-03-02T03:54:22;26.40;;;14.00;;
69005;SDS011;56061;51.748;19.620;2024-03-02T03:56:48;27.90;;;13.80;;
69005;SDS011;56061;51.748;19.620;2024-03-02T03:59:15;27.90;;;14.10;;
69005;SDS011;56061;51.748;19.620;2024-03-02T04:01:41;26.70;;;12.70;;
69005;SDS011;56061;51.748;19.620;2024-03-02T04:04:08;28.60;;;15.10;;
69005;SDS011;56061;51.748;19.620;2024-03-02T04:06:34;27.10;;;14.10;;
69005;SDS011;56061;51.748;19.620;2024-03-02T04:09:01;28.00;;;13.90;;
69005;SDS011;56061;51.748;19.620;2024-03-02T04:11:27;27.10;;;14.50;;
69005;SDS011;56061;51.748;19.620;2024-03-02T04:13:54;26.20;;;13.50;;
69005;SDS011;56061;51.748;19.620;2024-03-02T04:16:24;25.10;;;12.90;;
69005;SDS011;56061;51.748;19.620;2024-03-02T04:18:50;29.30;;;14.60;;
69005;SDS011;56061;51.748;19.620;2024-03-02T04:21:17;25.10;;;13.90;;
69005;SDS011;56061;51.748;19.620;2024-03-02T04:23:43;27.30;;;13.10;;
69005;SDS011;56061;51.748;19.620;2024-03-02T04:26:10;31.00;;;14.20;;
69005;SDS011;56061;51.748;19.620;2024-03-02T04:28:36;29.20;;;14.80;;
69005;SDS011;56061;51.748;19.620;2024-03-02T04:31:03;30.80;;;14.60;;
69005;SDS011;56061;51.748;19.620;2024-03-02T04:33:30;29.60;;;15.80;;
69005;SDS011;56061;51.748;19.620;2024-03-02T04:35:56;29.20;;;15.10;;
69005;SDS011;56061;51.748;19.620;2024-03-02T04:38:23;28.50;;;13.70;;
69005;SDS011;56061;51.748;19.620;2024-03-02T04:40:50;30.60;;;14.30;;
69005;SDS011;56061;51.748;19.620;2024-03-02T04:43:16;31.30;;;15.20;;
69005;SDS011;56061;51.748;19.620;2024-03-02T04:45:43;31.30;;;14.00;;
69005;SDS011;56061;51.748;19.620;2024-03-02T04:48:10;27.80;;;14.40;;
69005;SDS011;56061;51.748;19.620;2024-03-02T04:50:36;27.40;;;13.90;;
69005;SDS011;56061;51.748;19.620;2024-03-02T04:53:03;30.30;;;14.40;;
69005;SDS011;56061;51.748;19.620;2024-03-02T04:55:29;31.00;;;15.00;;
69005;SDS011;56061;51.748;19.620;2024-03-02T04:57:58;31.40;;;15.00;;
69005;SDS011;56061;51.748;19.620;2024-03-02T05:00:24;32.40;;;16.00;;
69005;SDS011;56061;51.748;19.620;2024-03-02T05:02:51;32.50;;;15.90;;
69005;SDS011;56061;51.748;19.620;2024-03-02T05:05:17;32.70;;;15.70;;
69005;SDS011;56061;51.748;19.620;2024-03-02T05:07:44;30.50;;;15.40;;
69005;SDS011;56061;51.748;19.620;2024-03-02T05:10:11;31.80;;;15.40;;
69005;SDS011;56061;51.748;19.620;2024-03-02T05:12:41;29.60;;;14.50;;
69005;SDS011;56061;51.748;19.620;2024-03-02T05:15:13;32.40;;;15.30;;
69005;SDS011;56061;51.748;19.620;2024-03-02T05:17:41;35.30;;;16.30;;
69005;SDS011;56061;51.748;19.620;2024-03-02T05:20:11;29.10;;;13.90;;
69005;SDS011;56061;51.748;19.620;2024-03-02T05:22:38;29.30;;;13.70;;
69005;SDS011;56061;51.748;19.620;2024-03-02T05:25:06;35.70;;;16.30;;
69005;SDS011;56061;51.748;19.620;2024-03-02T05:27:33;31.30;;;15.00;;
69005;SDS011;56061;51.748;19.620;2024-03-02T05:30:00;31.20;;;14.80;;
69005;SDS011;56061;51.748;19.620;2024-03-02T05:32:27;29.90;;;13.70;;
69005;SDS011;56061;51.748;19.620;2024-03-02T05:34:54;34.00;;;16.30;;
69005;SDS011;56061;51.748;19.620;2024-03-02T05:37:21;35.00;;;16.40;;
69005;SDS011;56061;51.748;19.620;2024-03-02T05:39:48;33.30;;;16.30;;
69005;SDS011;56061;51.748;19.620;2024-03-02T05:42:14;31.70;;;15.80;;
69005;SDS011;56061;51.748;19.620;2024-03-02T05:44:43;32.80;;;15.90;;
69005;SDS011;56061;51.748;19.620;2024-03-02T05:47:09;32.00;;;15.80;;
69005;SDS011;56061;51.748;19.620;2024-03-02T05:49:36;30.60;;;14.80;;
69005;SDS011;56061;51.748;19.620;2024-03-02T05:52:02;34.60;;;16.50;;
69005;SDS011;56061;51.748;19.620;2024-03-02T05:54:29;35.00;;;15.40;;
69005;SDS011;56061;51.748;19.620;2024-03-02T05:56:56;35.50;;;16.60;;
69005;SDS011;56061;51.748;19.620;2024-03-02T05:59:22;33.10;;;16.80;;
69005;SDS011;56061;51.748;19.620;2024-03-02T06:01:49;35.30;;;16.80;;
69005;SDS011;56061;51.748;19.620;2024-03-02T06:04:18;34.20;;;15.30;;
69005;SDS011;56061;51.748;19.620;2024-03-02T06:06:45;34.10;;;15.80;;
69005;SDS011;56061;51.748;19.620;2024-03-02T06:09:12;35.10;;;16.10;;
69005;SDS011;56061;51.748;19.620;2024-03-02T06:11:40;36.40;;;17.70;;
69005;SDS011;56061;51.748;19.620;2024-03-02T06:14:08;37.30;;;17.00;;
69005;SDS011;56061;51.748;19.620;2024-03-02T06:16:35;33.20;;;15.80;;
69005;SDS011;56061;51.748;19.620;2024-03-02T06:19:01;34.80;;;16.60;;
69005;SDS011;56061;51.748;19.620;2024-03-02T06:21:28;36.10;;;16.70;;
69005;SDS011;56061;51.748;19.620;2024-03-02T06:23:55;36.10;;;16.50;;
69005;SDS011;56061;51.748;19.620;2024-03-02T06:26:23;34.60;;;17.90;;
69005;SDS011;56061;51.748;19.620;2024-03-02T06:28:51;34.00;;;16.40;;
69005;SDS011;56061;51.748;19.620;2024-03-02T06:31:18;38.80;;;17.00;;
69005;SDS011;56061;51.748;19.620;2024-03-02T06:33:45;37.00;;;18.20;;
69005;SDS011;56061;51.748;19.620;2024-03-02T06:36:12;37.00;;;18.00;;
69005;SDS011;56061;51.748;19.620;2024-03-02T06:38:38;36.90;;;16.40;;
69005;SDS011;56061;51.748;19.620;2024-03-02T06:41:09;36.30;;;16.40;;
69005;SDS011;56061;51.748;19.620;2024-03-02T06:43:35;40.70;;;17.50;;
69005;SDS011;56061;51.748;19.620;2024-03-02T06:46:02;36.40;;;17.20;;
69005;SDS011;56061;51.748;19.620;2024-03-02T06:50:56;38.90;;;17.80;;
69005;SDS011;56061;51.748;19.620;2024-03-02T06:53:24;36.20;;;16.80;;
69005;SDS011;56061;51.748;19.620;2024-03-02T06:55:51;36.20;;;17.70;;
69005;SDS011;56061;51.748;19.620;2024-03-02T06:58:17;35.90;;;16.70;;
69005;SDS011;56061;51.748;19.620;2024-03-02T07:00:44;41.90;;;18.60;;
69005;SDS011;56061;51.748;19.620;2024-03-02T07:03:24;42.40;;;17.80;;
69005;SDS011;56061;51.748;19.620;2024-03-02T07:05:51;38.20;;;17.70;;
69005;SDS011;56061;51.748;19.620;2024-03-02T07:08:17;41.60;;;18.60;;
69005;SDS011;56061;51.748;19.620;2024-03-02T07:10:44;35.90;;;17.30;;
69005;SDS011;56061;51.748;19.620;2024-03-02T07:13:22;38.20;;;18.10;;
69005;SDS011;56061;51.748;19.620;2024-03-02T07:15:49;34.10;;;17.00;;
69005;SDS011;56061;51.748;19.620;2024-03-02T07:18:31;33.90;;;15.00;;
69005;SDS011;56061;51.748;19.620;2024-03-02T07:20:56;41.70;;;18.50;;
69005;SDS011;56061;51.748;19.620;2024-03-02T07:23:51;34.50;;;16.90;;
69005;SDS011;56061;51.748;19.620;2024-03-02T07:26:17;40.10;;;18.40;;
69005;SDS011;56061;51.748;19.620;2024-03-02T07:28:48;38.00;;;17.90;;
69005;SDS011;56061;51.748;19.620;2024-03-02T07:31:16;40.70;;;18.40;;
69005;SDS011;56061;51.748;19.620;2024-03-02T07:33:46;36.10;;;16.80;;
69005;SDS011;56061;51.748;19.620;2024-03-02T07:36:13;36.90;;;18.50;;
69005;SDS011;56061;51.748;19.620;2024-03-02T07:38:40;38.60;;;17.60;;
69005;SDS011;56061;51.748;19.620;2024-03-02T07:41:07;39.60;;;17.90;;
69005;SDS011;56061;51.748;19.620;2024-03-02T07:43:38;35.30;;;17.00;;
69005;SDS011;56061;51.748;19.620;2024-03-02T07:46:04;37.80;;;18.50;;
69005;SDS011;56061;51.748;19.620;2024-03-02T07:48:32;37.60;;;18.10;;
69005;SDS011;56061;51.748;19.620;2024-03-02T07:50:58;37.90;;;18.40;;
69005;SDS011;56061;51.748;19.620;2024-03-02T07:53:25;39.70;;;18.00;;
69005;SDS011;56061;51.748;19.620;2024-03-02T07:55:52;36.60;;;17.70;;
69005;SDS011;56061;51.748;19.620;2024-03-02T07:58:18;35.10;;;16.40;;
69005;SDS011;56061;51.748;19.620;2024-03-02T08:00:46;37.60;;;18.20;;
69005;SDS011;56061;51.748;19.620;2024-03-02T08:03:14;35.50;;;16.70;;
69005;SDS011;56061;51.748;19.620;2024-03-02T08:05:41;36.80;;;17.80;;
69005;SDS011;56061;51.748;19.620;2024-03-02T08:08:07;35.00;;;17.60;;
69005;SDS011;56061;51.748;19.620;2024-03-02T08:10:34;37.70;;;17.90;;
69005;SDS011;56061;51.748;19.620;2024-03-02T08:13:09;40.50;;;18.30;;
69005;SDS011;56061;51.748;19.620;2024-03-02T08:15:35;38.80;;;19.00;;
69005;SDS011;56061;51.748;19.620;2024-03-02T08:18:02;38.50;;;18.90;;
69005;SDS011;56061;51.748;19.620;2024-03-02T08:20:29;38.50;;;18.40;;
69005;SDS011;56061;51.748;19.620;2024-03-02T08:22:55;37.50;;;17.60;;
69005;SDS011;56061;51.748;19.620;2024-03-02T08:25:22;32.80;;;16.50;;
69005;SDS011;56061;51.748;19.620;2024-03-02T08:27:58;34.00;;;16.70;;
69005;SDS011;56061;51.748;19.620;2024-03-02T08:30:25;37.70;;;18.40;;
69005;SDS011;56061;51.748;19.620;2024-03-02T08:32:51;33.10;;;16.80;;
69005;SDS011;56061;51.748;19.620;2024-03-02T08:35:18;40.50;;;18.60;;
69005;SDS011;56061;51.748;19.620;2024-03-02T08:37:45;38.80;;;18.30;;
69005;SDS011;56061;51.748;19.620;2024-03-02T08:40:12;35.80;;;16.90;;
69005;SDS011;56061;51.748;19.620;2024-03-02T08:42:43;36.00;;;17.00;;
69005;SDS011;56061;51.748;19.620;2024-03-02T08:45:10;35.10;;;17.70;;
69005;SDS011;56061;51.748;19.620;2024-03-02T08:47:36;36.90;;;16.50;;
69005;SDS011;56061;51.748;19.620;2024-03-02T08:50:28;31.70;;;16.60;;
69005;SDS011;56061;51.748;19.620;2024-03-02T08:52:54;34.80;;;17.30;;
69005;SDS011;56061;51.748;19.620;2024-03-02T08:55:21;35.90;;;16.90;;
69005;SDS011;56061;51.748;19.620;2024-03-02T08:57:47;35.00;;;16.80;;
69005;SDS011;56061;51.748;19.620;2024-03-02T09:00:17;34.50;;;16.30;;
69005;SDS011;56061;51.748;19.620;2024-03-02T09:02:44;36.40;;;16.80;;
69005;SDS011;56061;51.748;19.620;2024-03-02T09:05:11;37.10;;;17.30;;
69005;SDS011;56061;51.748;19.620;2024-03-02T09:07:38;32.90;;;16.30;;
69005;SDS011;56061;51.748;19.620;2024-03-02T09:10:06;31.00;;;15.50;;
69005;SDS011;56061;51.748;19.620;2024-03-02T09:12:37;30.00;;;15.40;;
69005;SDS011;56061;51.748;19.620;2024-03-02T09:15:04;32.10;;;15.60;;
69005;SDS011;56061;51.748;19.620;2024-03-02T09:17:32;30.80;;;15.60;;
69005;SDS011;56061;51.748;19.620;2024-03-02T09:19:59;32.40;;;15.50;;
69005;SDS011;56061;51.748;19.620;2024-03-02T09:22:26;37.00;;;17.20;;
69005;SDS011;56061;51.748;19.620;2024-03-02T09:24:52;34.30;;;16.60;;
69005;SDS011;56061;51.748;19.620;2024-03-02T09:27:19;31.20;;;16.10;;
69005;SDS011;56061;51.748;19.620;2024-03-02T09:29:45;31.20;;;14.70;;
69005;SDS011;56061;51.748;19.620;2024-03-02T09:32:13;33.20;;;16.20;;
69005;SDS011;56061;51.748;19.620;2024-03-02T09:34:42;35.30;;;16.20;;
69005;SDS011;56061;51.748;19.620;2024-03-02T09:37:09;35.50;;;16.50;;
69005;SDS011;56061;51.748;19.620;2024-03-02T09:39:38;31.70;;;15.50;;
69005;SDS011;56061;51.748;19.620;2024-03-02T09:42:05;32.00;;;15.20;;
69005;SDS011;56061;51.748;19.620;2024-03-02T09:44:32;34.70;;;16.90;;
69005;SDS011;56061;51.748;19.620;2024-03-02T09:46:59;35.30;;;16.80;;
69005;SDS011;56061;51.748;19.620;2024-03-02T09:49:26;35.90;;;16.20;;
69005;SDS011;56061;51.748;19.620;2024-03-02T09:51:53;30.80;;;15.90;;
69005;SDS011;56061;51.748;19.620;2024-03-02T09:54:22;33.20;;;16.70;;
69005;SDS011;56061;51.748;19.620;2024-03-02T09:56:50;35.90;;;17.90;;
69005;SDS011;56061;51.748;19.620;2024-03-02T09:59:17;34.40;;;16.50;;
69005;SDS011;56061;51.748;19.620;2024-03-02T10:02:00;34.60;;;17.00;;
69005;SDS011;56061;51.748;19.620;2024-03-02T10:04:29;35.90;;;17.80;;
69005;SDS011;56061;51.748;19.620;2024-03-02T10:07:16;36.30;;;17.30;;
69005;SDS011;56061;51.748;19.620;2024-03-02T10:09:46;34.80;;;17.90;;
69005;SDS011;56061;51.748;19.620;2024-03-02T10:12:23;37.40;;;18.20;;
69005;SDS011;56061;51.748;19.620;2024-03-02T10:15:03;36.20;;;17.20;;
69005;SDS011;56061;51.748;19.620;2024-03-02T10:17:31;31.10;;;16.40;;
69005;SDS011;56061;51.748;19.620;2024-03-02T10:19:59;38.10;;;17.20;;
69005;SDS011;56061;51.748;19.620;2024-03-02T10:28:27;39.20;;;16.70;;
69005;SDS011;56061;51.748;19.620;2024-03-02T10:30:54;34.50;;;16.50;;
69005;SDS011;56061;51.748;19.620;2024-03-02T10:33:21;33.60;;;17.40;;
69005;SDS011;56061;51.748;19.620;2024-03-02T10:35:49;36.20;;;17.30;;
69005;SDS011;56061;51.748;19.620;2024-03-02T10:38:17;35.90;;;17.90;;
69005;SDS011;56061;51.748;19.620;2024-03-02T10:40:47;37.10;;;17.10;;
69005;SDS011;56061;51.748;19.620;2024-03-02T10:43:15;41.30;;;17.90;;
69005;SDS011;56061;51.748;19.620;2024-03-02T10:45:43;34.30;;;17.40;;
69005;SDS011;56061;51.748;19.620;2024-03-02T10:48:13;39.10;;;18.40;;
69005;SDS011;56061;51.748;19.620;2024-03-02T10:50:40;34.40;;;17.10;;
69005;SDS011;56061;51.748;19.620;2024-03-02T10:53:15;34.20;;;15.80;;
69005;SDS011;56061;51.748;19.620;2024-03-02T10:55:57;34.80;;;17.50;;
69005;SDS011;56061;51.748;19.620;2024-03-02T10:59:10;35.10;;;16.70;;
69005;SDS011;56061;51.748;19.620;2024-03-02T11:01:45;34.30;;;16.40;;
69005;SDS011;56061;51.748;19.620;2024-03-02T11:04:31;33.30;;;16.20;;
69005;SDS011;56061;51.748;19.620;2024-03-02T11:07:05;36.70;;;17.70;;
69005;SDS011;56061;51.748;19.620;2024-03-02T11:09:34;32.20;;;16.80;;
69005;SDS011;56061;51.748;19.620;2024-03-02T11:12:12;33.60;;;17.30;;
69005;SDS011;56061;51.748;19.620;2024-03-02T11:14:45;29.60;;;15.10;;
69005;SDS011;56061;51.748;19.620;2024-03-02T11:17:14;33.80;;;16.60;;
69005;SDS011;56061;51.748;19.620;2024-03-02T11:19:44;35.30;;;17.00;;
69005;SDS011;56061;51.748;19.620;2024-03-02T11:22:18;29.70;;;15.40;;
69005;SDS011;56061;51.748;19.620;2024-03-02T11:24:49;37.20;;;18.40;;
69005;SDS011;56061;51.748;19.620;2024-03-02T11:30:07;34.60;;;16.80;;
69005;SDS011;56061;51.748;19.620;2024-03-02T11:32:34;35.50;;;17.20;;
69005;SDS011;56061;51.748;19.620;2024-03-02T11:35:02;36.30;;;17.30;;
69005;SDS011;56061;51.748;19.620;2024-03-02T11:37:29;36.30;;;16.70;;
69005;SDS011;56061;51.748;19.620;2024-03-02T11:39:55;33.40;;;17.40;;
69005;SDS011;56061;51.748;19.620;2024-03-02T11:42:31;34.00;;;17.00;;
69005;SDS011;56061;51.748;19.620;2024-03-02T11:44:59;35.20;;;16.90;;
69005;SDS011;56061;51.748;19.620;2024-03-02T11:47:31;34.40;;;16.50;;
69005;SDS011;56061;51.748;19.620;2024-03-02T11:50:01;31.80;;;16.00;;
69005;SDS011;56061;51.748;19.620;2024-03-02T11:52:28;37.10;;;18.10;;
69005;SDS011;56061;51.748;19.620;2024-03-02T11:54:57;36.00;;;17.50;;
69005;SDS011;56061;51.748;19.620;2024-03-02T12:00:01;34.40;;;16.80;;
69005;SDS011;56061;51.748;19.620;2024-03-02T12:02:30;36.60;;;17.40;;
69005;SDS011;56061;51.748;19.620;2024-03-02T12:05:05;36.70;;;17.10;;
69005;SDS011;56061;51.748;19.620;2024-03-02T12:07:34;38.00;;;17.40;;
69005;SDS011;56061;51.748;19.620;2024-03-02T12:10:01;38.30;;;17.30;;
69005;SDS011;56061;51.748;19.620;2024-03-02T12:12:29;32.20;;;16.30;;
69005;SDS011;56061;51.748;19.620;2024-03-02T12:14:56;35.90;;;17.10;;
69005;SDS011;56061;51.748;19.620;2024-03-02T12:17:29;34.00;;;17.30;;
69005;SDS011;56061;51.748;19.620;2024-03-02T12:19:55;35.30;;;16.70;;
69005;SDS011;56061;51.748;19.620;2024-03-02T12:22:22;34.10;;;16.40;;
69005;SDS011;56061;51.748;19.620;2024-03-02T12:24:48;34.00;;;16.80;;
69005;SDS011;56061;51.748;19.620;2024-03-02T12:27:15;34.30;;;16.80;;
69005;SDS011;56061;51.748;19.620;2024-03-02T12:29:48;31.10;;;15.90;;
69005;SDS011;56061;51.748;19.620;2024-03-02T12:32:16;29.20;;;15.40;;
69005;SDS011;56061;51.748;19.620;2024-03-02T12:34:46;30.00;;;15.30;;
69005;SDS011;56061;51.748;19.620;2024-03-02T12:37:13;30.40;;;14.60;;
69005;SDS011;56061;51.748;19.620;2024-03-02T12:39:44;33.70;;;15.90;;
69005;SDS011;56061;51.748;19.620;2024-03-02T12:42:13;32.80;;;16.30;;
69005;SDS011;56061;51.748;19.620;2024-03-02T12:44:43;32.80;;;16.20;;
69005;SDS011;56061;51.748;19.620;2024-03-02T12:47:09;34.00;;;15.30;;
69005;SDS011;56061;51.748;19.620;2024-03-02T12:49:36;28.60;;;14.60;;
69005;SDS011;56061;51.748;19.620;2024-03-02T12:52:03;31.00;;;16.10;;
69005;SDS011;56061;51.748;19.620;2024-03-02T12:54:30;29.50;;;14.90;;
69005;SDS011;56061;51.748;19.620;2024-03-02T12:56:57;29.50;;;15.30;;
69005;SDS011;56061;51.748;19.620;2024-03-02T12:59:24;35.30;;;15.50;;
69005;SDS011;56061;51.748;19.620;2024-03-02T13:01:53;38.50;;;18.80;;
69005;SDS011;56061;51.748;19.620;2024-03-02T13:04:27;33.70;;;16.20;;
69005;SDS011;56061;51.748;19.620;2024-03-02T13:07:04;35.70;;;17.40;;
69005;SDS011;56061;51.748;19.620;2024-03-02T13:09:32;32.70;;;15.80;;
69005;SDS011;56061;51.748;19.620;2024-03-02T13:11:59;37.20;;;17.30;;
69005;SDS011;56061;51.748;19.620;2024-03-02T13:14:26;33.10;;;15.60;;
69005;SDS011;56061;51.748;19.620;2024-03-02T13:16:52;33.10;;;15.40;;
69005;SDS011;56061;51.748;19.620;2024-03-02T13:19:28;26.90;;;13.70;;
69005;SDS011;56061;51.748;19.620;2024-03-02T13:21:57;30.90;;;14.90;;
69005;SDS011;56061;51.748;19.620;2024-03-02T13:24:24;28.60;;;13.80;;
69005;SDS011;56061;51.748;19.620;2024-03-02T13:26:54;27.20;;;14.60;;
69005;SDS011;56061;51.748;19.620;2024-03-02T13:32:24;34.10;;;16.30;;
69005;SDS011;56061;51.748;19.620;2024-03-02T13:34:52;32.30;;;16.60;;
69005;SDS011;56061;51.748;19.620;2024-03-02T13:37:33;37.10;;;17.60;;
69005;SDS011;56061;51.748;19.620;2024-03-02T13:39:59;33.50;;;16.60;;
69005;SDS011;56061;51.748;19.620;2024-03-02T13:42:26;32.80;;;16.70;;
69005;SDS011;56061;51.748;19.620;2024-03-02T13:44:54;35.00;;;16.10;;
69005;SDS011;56061;51.748;19.620;2024-03-02T13:47:20;31.00;;;15.30;;
69005;SDS011;56061;51.748;19.620;2024-03-02T13:50:13;35.30;;;15.60;;
69005;SDS011;56061;51.748;19.620;2024-03-02T13:52:40;30.60;;;14.80;;
69005;SDS011;56061;51.748;19.620;2024-03-02T13:55:07;31.10;;;16.00;;
69005;SDS011;56061;51.748;19.620;2024-03-02T13:57:37;32.70;;;15.90;;
69005;SDS011;56061;51.748;19.620;2024-03-02T14:00:05;32.50;;;15.70;;
69005;SDS011;56061;51.748;19.620;2024-03-02T14:02:37;36.60;;;16.60;;
69005;SDS011;56061;51.748;19.620;2024-03-02T14:05:03;35.00;;;15.10;;
69005;SDS011;56061;51.748;19.620;2024-03-02T14:07:30;33.60;;;16.00;;
69005;SDS011;56061;51.748;19.620;2024-03-02T14:09:58;32.30;;;16.00;;
69005;SDS011;56061;51.748;19.620;2024-03-02T14:12:25;29.80;;;15.90;;
69005;SDS011;56061;51.748;19.620;2024-03-02T14:14:52;32.10;;;14.90;;
69005;SDS011;56061;51.748;19.620;2024-03-02T14:17:21;30.60;;;15.20;;
69005;SDS011;56061;51.748;19.620;2024-03-02T14:19:48;35.50;;;16.60;;
69005;SDS011;56061;51.748;19.620;2024-03-02T14:22:14;30.30;;;14.70;;
69005;SDS011;56061;51.748;19.620;2024-03-02T14:24:57;31.60;;;15.30;;
69005;SDS011;56061;51.748;19.620;2024-03-02T14:27:24;27.60;;;13.70;;
69005;SDS011;56061;51.748;19.620;2024-03-02T14:29:57;31.40;;;15.60;;
69005;SDS011;56061;51.748;19.620;2024-03-02T14:32:24;37.40;;;17.50;;
69005;SDS011;56061;51.748;19.620;2024-03-02T14:34:59;35.70;;;17.60;;